createdAt,value
2023-03-05T00:01:14.141Z,1.90
2023-03-05T00:03:40.794Z,1.80
2023-03-05T00:06:07.524Z,1.75
2023-03-05T00:08:34.696Z,1.74
2023-03-05T00:11:04.523Z,1.83
2023-03-05T00:13:31.301Z,1.91
2023-03-05T00:15:57.972Z,1.90
2023-03-05T00:18:24.580Z,1.84
2023-03-05T00:20:51.228Z,1.86
2023-03-05T00:23:17.755Z,1.91
2023-03-05T00:25:45.895Z,1.95
2023-03-05T00:28:13.073Z,1.92
2023-03-05T00:30:39.637Z,1.88
2023-03-05T00:33:06.284Z,1.88
2023-03-05T00:35:39.620Z,1.82
2023-03-05T00:38:06.064Z,1.75
2023-03-05T00:40:36.711Z,1.75
2023-03-05T00:43:03.703Z,1.63
2023-03-05T00:45:30.470Z,1.54
2023-03-05T00:47:57.620Z,1.44
2023-03-05T00:50:26.838Z,1.37
2023-03-05T00:52:54.037Z,1.33
2023-03-05T00:55:20.831Z,1.25
2023-03-05T00:57:47.409Z,1.19
2023-03-05T01:00:15.200Z,1.19
2023-03-05T01:02:42.142Z,1.16
2023-03-05T01:05:12.657Z,1.22
2023-03-05T01:07:39.665Z,1.23
2023-03-05T01:10:07.104Z,1.23
2023-03-05T01:12:33.658Z,1.31
2023-03-05T01:15:00.485Z,1.17
2023-03-05T01:17:27.004Z,1.31
2023-03-05T01:19:53.480Z,1.36
2023-03-05T01:22:19.930Z,1.40
2023-03-05T01:24:46.460Z,1.36
2023-03-05T01:27:12.912Z,1.32
2023-03-05T01:29:39.501Z,1.32
2023-03-05T01:32:06.059Z,1.33
2023-03-05T01:34:33.131Z,1.38
2023-03-05T01:36:59.547Z,1.45
2023-03-05T01:39:26.008Z,1.45
2023-03-05T01:41:52.549Z,1.45
2023-03-05T01:44:25.074Z,1.37
2023-03-05T01:46:52.008Z,1.33
2023-03-05T01:49:28.507Z,1.29
2023-03-05T01:52:18.050Z,1.03
2023-03-05T01:54:59.041Z,1.32
2023-03-05T01:57:33.579Z,1.25
2023-03-05T02:00:05.790Z,1.22
2023-03-05T02:02:41.329Z,1.16
2023-03-05T02:05:11.544Z,1.11
2023-03-05T02:07:40.100Z,1.08
2023-03-05T02:10:35.059Z,1.09
2023-03-05T02:13:05.440Z,1.09
2023-03-05T02:15:33.351Z,1.14
2023-03-05T02:18:01.272Z,1.22
2023-03-05T02:20:30.962Z,1.19
2023-03-05T02:22:57.838Z,1.00
2023-03-05T02:25:29.350Z,1.04
2023-03-05T02:28:01.895Z,1.02
2023-03-05T02:30:28.682Z,1.07
2023-03-05T02:32:55.196Z,1.14
2023-03-05T02:35:22.047Z,1.19
2023-03-05T02:37:48.549Z,1.16
2023-03-05T02:40:15.273Z,1.22
2023-03-05T02:42:42.966Z,1.24
2023-03-05T02:45:14.184Z,1.19
2023-03-05T02:47:41.307Z,1.29
2023-03-05T02:50:10.989Z,1.30
2023-03-05T02:52:38.616Z,1.30
2023-03-05T02:55:10.151Z,1.32
2023-03-05T02:57:37.945Z,1.29
2023-03-05T03:00:06.101Z,1.34
2023-03-05T03:02:33.996Z,1.36
2023-03-05T03:05:00.623Z,1.29
2023-03-05T03:07:27.129Z,1.21
2023-03-05T03:09:53.615Z,1.27
2023-03-05T03:12:20.086Z,1.25
2023-03-05T03:14:46.645Z,1.13
2023-03-05T03:17:15.573Z,1.13
2023-03-05T03:19:44.230Z,1.17
2023-03-05T03:22:13.300Z,1.20
2023-03-05T03:24:41.955Z,1.20
2023-03-05T03:27:08.973Z,1.10
2023-03-05T03:29:36.214Z,1.00
2023-03-05T03:32:03.300Z,0.95
2023-03-05T03:34:30.151Z,0.91
2023-03-05T03:36:56.618Z,0.84
2023-03-05T03:39:23.763Z,0.84
2023-03-05T03:41:52.337Z,0.84
2023-03-05T03:44:20.940Z,0.94
2023-03-05T03:46:48.825Z,1.01
2023-03-05T03:49:18.078Z,1.04
2023-03-05T03:51:44.661Z,1.06
2023-03-05T03:54:11.109Z,1.06
2023-03-05T03:56:37.596Z,1.19
2023-03-05T03:59:04.073Z,1.16
2023-03-05T04:01:30.555Z,1.09
2023-03-05T04:03:57.028Z,1.10
2023-03-05T04:06:23.679Z,1.02
2023-03-05T04:08:50.477Z,1.10
2023-03-05T04:11:20.271Z,0.83
2023-03-05T04:13:47.761Z,0.93
2023-03-05T04:16:15.635Z,1.02
2023-03-05T04:18:42.878Z,1.08
2023-03-05T04:21:09.556Z,1.05
2023-03-05T04:23:36.080Z,1.05
2023-03-05T04:26:02.577Z,1.02
2023-03-05T04:28:29.205Z,0.98
2023-03-05T04:30:55.646Z,0.87
2023-03-05T04:33:22.118Z,0.96
2023-03-05T04:35:48.805Z,0.97
2023-03-05T04:38:15.310Z,1.00
2023-03-05T04:40:41.929Z,1.00
2023-03-05T04:43:08.542Z,0.98
2023-03-05T04:45:35.022Z,0.97
2023-03-05T04:48:01.464Z,0.96
2023-03-05T04:50:27.917Z,0.90
2023-03-05T04:52:54.558Z,0.84
2023-03-05T04:55:21.051Z,0.81
2023-03-05T04:57:48.066Z,0.83
2023-03-05T05:00:16.791Z,0.84
2023-03-05T05:02:45.783Z,0.82
2023-03-05T05:05:15.415Z,0.77
2023-03-05T05:07:41.864Z,0.82
2023-03-05T05:10:09.970Z,0.80
2023-03-05T05:12:37.327Z,0.72
2023-03-05T05:15:06.496Z,0.74
2023-03-05T05:17:33.953Z,0.79
2023-03-05T05:20:02.523Z,0.87
2023-03-05T05:22:29.325Z,0.87
2023-03-05T05:24:56.475Z,0.89
2023-03-05T05:27:22.962Z,0.91
2023-03-05T05:29:53.008Z,0.85
2023-03-05T05:32:21.248Z,0.82
2023-03-05T05:34:48.483Z,0.84
2023-03-05T05:37:15.341Z,0.87
2023-03-05T05:39:41.797Z,0.82
2023-03-05T05:42:08.265Z,0.78
2023-03-05T05:44:34.914Z,0.78
2023-03-05T05:47:01.736Z,0.75
2023-03-05T05:49:28.546Z,0.82
2023-03-05T05:51:55.029Z,0.84
2023-03-05T05:54:22.542Z,0.77
2023-03-05T05:56:49.018Z,0.84
2023-03-05T05:59:15.424Z,0.80
2023-03-05T06:01:41.964Z,0.83
2023-03-05T06:04:08.427Z,0.85
2023-03-05T06:06:35.020Z,0.90
2023-03-05T06:09:01.543Z,0.96
2023-03-05T06:11:28.200Z,0.98
2023-03-05T06:13:54.749Z,0.95
2023-03-05T06:16:24.052Z,0.99
2023-03-05T06:18:51.640Z,1.03
2023-03-05T06:21:20.328Z,1.03
2023-03-05T06:23:48.180Z,0.99
2023-03-05T06:26:17.466Z,1.08
2023-03-05T06:28:43.986Z,1.00
2023-03-05T06:31:20.064Z,0.89
2023-03-05T06:33:46.687Z,0.74
2023-03-05T06:36:15.918Z,0.73
2023-03-05T06:38:43.164Z,0.71
2023-03-05T06:41:12.864Z,0.74
2023-03-05T06:43:41.850Z,0.89
2023-03-05T06:46:29.927Z,0.91
2023-03-05T06:48:58.192Z,0.82
2023-03-05T06:51:30.830Z,0.82
2023-03-05T06:54:01.678Z,0.84
2023-03-05T06:56:28.283Z,0.91
2023-03-05T06:58:54.899Z,0.97
2023-03-05T07:01:21.602Z,1.07
2023-03-05T07:03:52.546Z,1.01
2023-03-05T07:06:19.915Z,0.99
2023-03-05T07:08:46.404Z,0.92
2023-03-05T07:11:15.631Z,1.07
2023-03-05T07:13:43.234Z,1.10
2023-03-05T07:16:13.342Z,1.23
2023-03-05T07:18:39.833Z,1.33
2023-03-05T07:21:09.024Z,1.36
2023-03-05T07:23:36.018Z,1.44
2023-03-05T07:26:04.691Z,1.57
2023-03-05T07:28:32.197Z,1.61
2023-03-05T07:31:03.934Z,1.52
2023-03-05T07:33:30.708Z,1.77
2023-03-05T07:35:57.215Z,1.79
2023-03-05T07:38:23.777Z,1.89
2023-03-05T07:40:50.792Z,1.92
2023-03-05T07:43:17.502Z,1.98
2023-03-05T07:45:46.086Z,2.05
2023-03-05T07:48:15.887Z,2.12
2023-03-05T07:50:42.580Z,2.21
2023-03-05T07:53:09.209Z,2.26
2023-03-05T07:55:41.496Z,2.39
2023-03-05T07:58:07.896Z,2.27
2023-03-05T08:00:34.301Z,2.30
2023-03-05T08:03:00.719Z,2.37
2023-03-05T08:05:27.152Z,2.36
2023-03-05T08:07:53.686Z,2.50
2023-03-05T08:10:20.287Z,3.72
2023-03-05T08:12:46.885Z,3.25
2023-03-05T08:15:13.332Z,3.35
2023-03-05T08:17:39.994Z,3.09
2023-03-05T08:20:10.817Z,2.92
2023-03-05T08:22:38.436Z,2.76
2023-03-05T08:25:06.196Z,2.82
2023-03-05T08:27:33.057Z,2.84
2023-03-05T08:30:02.316Z,2.87
2023-03-05T08:32:29.181Z,2.92
2023-03-05T08:34:58.467Z,2.87
2023-03-05T08:37:25.255Z,2.89
2023-03-05T08:39:51.645Z,2.93
2023-03-05T08:42:18.170Z,2.92
2023-03-05T08:44:44.676Z,2.94
2023-03-05T08:47:11.124Z,2.96
2023-03-05T08:49:37.562Z,2.86
2023-03-05T08:52:04.142Z,2.71
2023-03-05T08:54:30.645Z,2.73
2023-03-05T08:56:57.090Z,2.40
2023-03-05T08:59:23.543Z,2.30
2023-03-05T09:01:50.566Z,2.36
2023-03-05T09:04:17.142Z,2.52
2023-03-05T09:06:43.552Z,2.40
2023-03-05T09:09:10.178Z,1.78
2023-03-05T09:11:37.272Z,1.90
2023-03-05T09:14:04.916Z,1.90
2023-03-05T09:16:32.253Z,2.01
2023-03-05T09:18:59.889Z,1.95
2023-03-05T09:21:26.397Z,2.22
2023-03-05T09:23:52.862Z,2.36
2023-03-05T09:26:20.098Z,2.44
2023-03-05T09:28:47.715Z,2.57
2023-03-05T09:31:14.534Z,2.71
2023-03-05T09:33:41.011Z,2.79
2023-03-05T09:36:23.754Z,2.85
2023-03-05T09:38:50.810Z,2.91
2023-03-05T09:41:33.985Z,2.97
2023-03-05T09:44:27.385Z,3.04
2023-03-05T09:47:15.955Z,3.07
2023-03-05T09:50:34.090Z,3.11
2023-03-05T09:53:27.595Z,3.19
2023-03-05T09:56:10.449Z,3.20
2023-03-05T09:58:43.292Z,3.24
2023-03-05T10:01:11.926Z,3.29
2023-03-05T10:03:38.354Z,3.32
2023-03-05T10:06:24.125Z,3.37
2023-03-05T10:09:26.005Z,3.42
2023-03-05T10:12:23.544Z,3.41
2023-03-05T10:14:50.304Z,3.45
2023-03-05T10:17:55.250Z,3.43
2023-03-05T10:20:27.732Z,3.50
2023-03-05T10:23:30.314Z,3.48
2023-03-05T10:26:27.631Z,3.47
2023-03-05T10:29:05.473Z,3.52
2023-03-05T10:31:46.119Z,3.59
2023-03-05T10:34:39.847Z,3.65
2023-03-05T10:37:25.057Z,3.66
2023-03-05T10:40:05.966Z,3.73
2023-03-05T10:42:58.499Z,3.72
2023-03-05T10:45:33.226Z,3.74
2023-03-05T10:48:28.908Z,3.78
2023-03-05T10:51:19.328Z,3.81
2023-03-05T10:53:52.307Z,3.82
2023-03-05T10:56:22.492Z,3.87
2023-03-05T10:58:49.038Z,3.86
2023-03-05T11:01:22.043Z,3.88
2023-03-05T11:04:04.768Z,3.88
2023-03-05T11:06:38.261Z,3.87
2023-03-05T11:09:32.215Z,3.95
2023-03-05T11:12:01.686Z,3.94
2023-03-05T11:14:31.305Z,3.91
2023-03-05T11:16:57.862Z,3.86
2023-03-05T11:19:30.232Z,3.85
2023-03-05T11:22:18.989Z,3.91
2023-03-05T11:25:05.309Z,3.93
2023-03-05T11:27:37.148Z,3.98
2023-03-05T11:30:18.071Z,3.99
2023-03-05T11:32:44.542Z,4.02
2023-03-05T11:35:32.938Z,4.09
2023-03-05T11:38:02.040Z,4.13
2023-03-05T11:40:31.284Z,4.19
2023-03-05T11:43:02.950Z,4.21
2023-03-05T11:45:31.737Z,4.13
2023-03-05T11:48:25.745Z,4.09
2023-03-05T11:50:57.654Z,4.06
2023-03-05T11:53:31.288Z,4.15
2023-03-05T11:56:12.690Z,4.17
2023-03-05T11:58:41.311Z,4.60
2023-03-05T12:01:15.935Z,5.28
2023-03-05T12:03:43.718Z,5.68
2023-03-05T12:06:19.657Z,5.50
2023-03-05T12:08:51.398Z,5.29
2023-03-05T12:11:26.354Z,4.85
2023-03-05T12:13:57.654Z,4.64
2023-03-05T12:16:34.481Z,4.63
2023-03-05T12:19:07.290Z,4.58
2023-03-05T12:21:39.382Z,4.61
2023-03-05T12:24:27.323Z,4.59
2023-03-05T12:27:03.583Z,4.65
2023-03-05T12:29:33.340Z,4.62
2023-03-05T12:32:01.508Z,4.63
2023-03-05T12:34:40.576Z,4.57
2023-03-05T12:37:34.078Z,4.57
2023-03-05T12:40:04.580Z,4.50
2023-03-05T12:42:31.367Z,4.47
2023-03-05T12:45:10.093Z,4.45
2023-03-05T12:47:40.754Z,4.47
2023-03-05T12:50:29.197Z,4.42
2023-03-05T12:53:08.927Z,4.36
2023-03-05T12:55:46.297Z,4.31
2023-03-05T12:58:18.612Z,4.32
2023-03-05T13:00:52.320Z,4.27
2023-03-05T13:03:31.213Z,3.90
2023-03-05T13:06:00.419Z,4.11
2023-03-05T13:08:32.147Z,4.13
2023-03-05T13:11:16.663Z,4.11
2023-03-05T13:13:45.018Z,4.17
2023-03-05T13:16:27.154Z,4.13
2023-03-05T13:18:54.838Z,4.14
2023-03-05T13:21:26.766Z,4.10
2023-03-05T13:23:58.392Z,4.05
2023-03-05T13:26:30.384Z,4.09
2023-03-05T13:29:08.098Z,4.04
2023-03-05T13:31:46.761Z,3.99
2023-03-05T13:34:37.441Z,3.98
2023-03-05T13:37:20.368Z,3.96
2023-03-05T13:40:15.011Z,3.84
2023-03-05T13:42:41.519Z,3.75
2023-03-05T13:45:28.382Z,3.80
2023-03-05T13:48:00.873Z,3.90
2023-03-05T13:50:41.273Z,3.96
2023-03-05T13:53:24.367Z,4.00
2023-03-05T13:55:54.142Z,4.04
2023-03-05T13:58:52.451Z,4.13
2023-03-05T14:01:22.172Z,4.15
2023-03-05T14:03:51.292Z,4.17
2023-03-05T14:06:21.896Z,4.20
2023-03-05T14:08:54.981Z,4.24
2023-03-05T14:11:21.544Z,4.14
2023-03-05T14:13:49.102Z,4.25
2023-03-05T14:16:26.389Z,4.23
2023-03-05T14:18:58.027Z,4.29
2023-03-05T14:21:25.060Z,4.17
2023-03-05T14:23:55.295Z,4.13
2023-03-05T14:26:34.046Z,4.09
2023-03-05T14:29:07.252Z,4.03
2023-03-05T14:31:47.925Z,4.00
2023-03-05T14:34:31.861Z,3.96
2023-03-05T14:37:03.271Z,3.97
2023-03-05T14:39:46.404Z,3.96
2023-03-05T14:42:25.912Z,3.96
2023-03-05T14:44:53.181Z,3.94
2023-03-05T14:47:19.570Z,3.89
2023-03-05T14:49:46.573Z,3.86
2023-03-05T14:52:18.492Z,3.85
2023-03-05T14:54:45.519Z,3.84
2023-03-05T14:57:18.492Z,3.85
2023-03-05T14:59:45.197Z,3.82
2023-03-05T15:02:20.882Z,3.82
2023-03-05T15:04:47.737Z,3.76
2023-03-05T15:07:30.819Z,3.82
2023-03-05T15:09:59.560Z,3.79
2023-03-05T15:12:26.688Z,3.73
2023-03-05T15:14:55.280Z,3.68
2023-03-05T15:17:29.854Z,3.70
2023-03-05T15:19:56.347Z,3.77
2023-03-05T15:22:22.824Z,3.75
2023-03-05T15:24:49.281Z,3.79
2023-03-05T15:27:15.714Z,3.78
2023-03-05T15:29:42.673Z,3.76
2023-03-05T15:32:09.687Z,3.77
2023-03-05T15:34:36.552Z,3.76
2023-03-05T15:37:03.844Z,3.80
2023-03-05T15:39:30.712Z,3.81
2023-03-05T15:41:57.673Z,3.85
2023-03-05T15:44:24.575Z,3.88
2023-03-05T15:46:51.015Z,3.88
2023-03-05T15:49:17.587Z,3.90
2023-03-05T15:51:44.327Z,3.91
2023-03-05T15:54:10.748Z,3.93
2023-03-05T15:56:37.771Z,3.96
2023-03-05T15:59:05.615Z,3.94
2023-03-05T16:01:32.073Z,3.98
2023-03-05T16:03:58.573Z,3.95
2023-03-05T16:06:25.331Z,3.92
2023-03-05T16:08:58.337Z,3.90
2023-03-05T16:11:26.984Z,3.91
2023-03-05T16:13:53.873Z,3.89
2023-03-05T16:16:21.609Z,3.87
2023-03-05T16:18:48.347Z,3.90
2023-03-05T16:21:14.923Z,3.82
2023-03-05T16:23:41.795Z,3.77
2023-03-05T16:26:10.493Z,3.70
2023-03-05T16:28:37.216Z,3.78
2023-03-05T16:31:03.828Z,3.80
2023-03-05T16:33:30.306Z,3.78
2023-03-05T16:36:22.339Z,3.79
2023-03-05T16:38:50.522Z,3.78
2023-03-05T16:41:17.257Z,3.75
2023-03-05T16:43:44.834Z,3.71
2023-03-05T16:46:12.745Z,3.68
2023-03-05T16:48:39.281Z,3.64
2023-03-05T16:51:06.861Z,3.60
2023-03-05T16:53:33.294Z,3.62
2023-03-05T16:56:03.963Z,3.62
2023-03-05T16:58:31.490Z,3.57
2023-03-05T17:00:58.026Z,3.48
2023-03-05T17:03:24.633Z,3.55
2023-03-05T17:05:51.113Z,3.55
2023-03-05T17:08:17.579Z,3.51
2023-03-05T17:10:44.035Z,3.51
2023-03-05T17:13:10.442Z,3.57
2023-03-05T17:15:37.381Z,3.56
2023-03-05T17:18:04.377Z,3.52
2023-03-05T17:20:30.954Z,3.50
2023-03-05T17:23:02.773Z,3.33
2023-03-05T17:25:29.366Z,3.42
2023-03-05T17:27:55.828Z,3.44
2023-03-05T17:30:22.319Z,3.43
2023-03-05T17:32:52.335Z,3.44
2023-03-05T17:35:21.747Z,3.41
2023-03-05T17:37:48.325Z,3.35
2023-03-05T17:40:16.360Z,3.37
2023-03-05T17:42:42.901Z,3.32
2023-03-05T17:45:09.825Z,3.36
2023-03-05T17:47:36.708Z,3.36
2023-03-05T17:50:04.299Z,3.19
2023-03-05T17:52:31.051Z,3.31
2023-03-05T17:54:58.446Z,3.25
2023-03-05T17:57:26.388Z,3.21
2023-03-05T17:59:52.845Z,3.24
2023-03-05T18:02:19.807Z,3.21
2023-03-05T18:04:47.863Z,3.20
2023-03-05T18:07:14.441Z,3.20
2023-03-05T18:09:41.396Z,3.15
2023-03-05T18:12:08.231Z,3.02
2023-03-05T18:14:34.816Z,2.98
2023-03-05T18:17:01.250Z,2.83
2023-03-05T18:19:27.687Z,2.86
2023-03-05T18:21:54.228Z,2.82
2023-03-05T18:24:20.627Z,2.81
2023-03-05T18:26:47.054Z,2.72
2023-03-05T18:29:13.468Z,2.73
2023-03-05T18:31:39.923Z,2.60
2023-03-05T18:34:06.355Z,2.59
2023-03-05T18:36:32.995Z,2.67
2023-03-05T18:38:59.400Z,2.60
2023-03-05T18:41:28.191Z,2.70
2023-03-05T18:43:54.840Z,2.66
2023-03-05T18:46:21.403Z,2.64
2023-03-05T18:48:48.360Z,2.69
2023-03-05T18:51:17.634Z,3.50
2023-03-05T18:53:44.595Z,4.98
2023-03-05T18:56:11.785Z,5.71
2023-03-05T18:58:39.449Z,5.30
2023-03-05T19:01:06.636Z,4.63
2023-03-05T19:03:33.316Z,3.96
2023-03-05T19:05:59.736Z,3.94
2023-03-05T19:08:26.443Z,3.74
2023-03-05T19:10:53.025Z,3.58
2023-03-05T19:13:35.247Z,3.32
2023-03-05T19:16:13.924Z,3.17
2023-03-05T19:18:53.832Z,3.18
2023-03-05T19:21:20.291Z,3.07
2023-03-05T19:23:46.652Z,2.95
2023-03-05T19:26:13.083Z,2.91
2023-03-05T19:28:40.013Z,2.92
2023-03-05T19:31:06.620Z,2.86
2023-03-05T19:33:33.071Z,2.70
2023-03-05T19:36:00.438Z,2.77
2023-03-05T19:38:26.844Z,2.66
2023-03-05T19:40:53.283Z,2.60
2023-03-05T19:43:20.380Z,2.60
2023-03-05T19:45:46.935Z,2.65
2023-03-05T19:48:15.421Z,2.57
2023-03-05T19:50:41.935Z,2.57
2023-03-05T19:53:08.412Z,2.50
2023-03-05T19:55:40.089Z,2.46
2023-03-05T19:58:06.557Z,2.46
2023-03-05T20:00:33.178Z,2.48
2023-03-05T20:02:59.582Z,2.42
2023-03-05T20:05:26.560Z,2.45
2023-03-05T20:07:53.598Z,2.41
2023-03-05T20:10:20.303Z,2.38
2023-03-05T20:12:48.424Z,2.41
2023-03-05T20:15:15.052Z,2.41
2023-03-05T20:17:45.559Z,2.35
2023-03-05T20:20:17.972Z,2.33
2023-03-05T20:22:47.243Z,2.13
2023-03-05T20:25:16.634Z,2.04
2023-03-05T20:27:43.771Z,1.94
2023-03-05T20:30:14.463Z,1.99
2023-03-05T20:32:41.202Z,2.10
2023-03-05T20:35:12.463Z,2.17
2023-03-05T20:37:49.430Z,2.13
2023-03-05T20:40:16.684Z,2.25
2023-03-05T20:42:43.404Z,2.32
2023-03-05T20:45:10.337Z,2.34
2023-03-05T20:47:45.834Z,2.38
2023-03-05T20:50:17.386Z,2.37
2023-03-05T20:52:43.993Z,2.41
2023-03-05T20:55:11.818Z,2.42
2023-03-05T20:57:39.115Z,2.37
2023-03-05T21:00:06.411Z,2.36
2023-03-05T21:02:33.012Z,2.28
2023-03-05T21:04:59.438Z,2.32
2023-03-05T21:07:28.029Z,2.16
2023-03-05T21:09:54.440Z,2.00
2023-03-05T21:12:21.442Z,1.92
2023-03-05T21:14:47.885Z,1.93
2023-03-05T21:17:14.365Z,2.02
2023-03-05T21:19:40.842Z,1.97
2023-03-05T21:22:07.317Z,1.97
2023-03-05T21:24:43.771Z,1.95
2023-03-05T21:27:10.593Z,2.01
2023-03-05T21:29:37.080Z,1.98
2023-03-05T21:32:03.750Z,2.08
2023-03-05T21:34:30.391Z,1.99
2023-03-05T21:36:56.866Z,2.19
2023-03-05T21:39:23.278Z,2.14
2023-03-05T21:41:49.977Z,2.03
2023-03-05T21:44:17.661Z,2.10
2023-03-05T21:46:44.253Z,2.01
2023-03-05T21:49:10.960Z,2.04
2023-03-05T21:51:48.804Z,1.96
2023-03-05T21:54:15.370Z,2.04
2023-03-05T21:56:41.765Z,2.10
2023-03-05T21:59:08.242Z,2.15
2023-03-05T22:01:35.401Z,2.18
2023-03-05T22:04:01.938Z,2.19
2023-03-05T22:06:28.386Z,2.19
2023-03-05T22:08:55.086Z,2.18
2023-03-05T22:11:22.344Z,2.17
2023-03-05T22:13:48.994Z,2.16
2023-03-05T22:16:26.719Z,2.18
2023-03-05T22:18:53.497Z,2.21
2023-03-05T22:21:22.666Z,2.22
2023-03-05T22:23:49.863Z,2.23
2023-03-05T22:26:16.339Z,2.20
2023-03-05T22:28:42.819Z,2.14
2023-03-05T22:31:10.219Z,2.01
2023-03-05T22:33:36.703Z,1.94
2023-03-05T22:36:10.553Z,1.88
2023-03-05T22:38:37.113Z,1.89
2023-03-05T22:41:08.594Z,1.86
2023-03-05T22:43:35.384Z,1.82
2023-03-05T22:46:12.834Z,1.81
2023-03-05T22:48:39.920Z,1.82
2023-03-05T22:51:06.465Z,1.80
2023-03-05T22:53:32.924Z,1.78
2023-03-05T22:55:59.666Z,1.72
2023-03-05T22:58:26.072Z,1.68
2023-03-05T23:00:52.508Z,1.74
2023-03-05T23:03:19.039Z,1.77
2023-03-05T23:05:45.458Z,1.60
2023-03-05T23:08:11.913Z,1.75
2023-03-05T23:10:38.447Z,1.81
2023-03-05T23:13:04.853Z,1.78
2023-03-05T23:15:34.653Z,1.83
2023-03-05T23:18:01.904Z,1.90
2023-03-05T23:20:30.999Z,1.91
2023-03-05T23:22:58.113Z,1.79
2023-03-05T23:25:28.305Z,1.81
2023-03-05T23:27:55.268Z,1.78
2023-03-05T23:30:29.540Z,1.86
2023-03-05T23:33:05.131Z,1.82
2023-03-05T23:35:39.987Z,1.74
2023-03-05T23:38:09.735Z,1.73
2023-03-05T23:40:39.937Z,1.73
2023-03-05T23:43:06.457Z,1.79
2023-03-05T23:45:33.239Z,1.69
2023-03-05T23:47:59.963Z,1.60
2023-03-05T23:50:29.450Z,1.77
2023-03-05T23:52:56.957Z,1.78
2023-03-05T23:55:30.219Z,1.72
2023-03-05T23:57:56.844Z,1.76
